createdAt,value
2023-04-15T00:00:34.858Z,97288.42
2023-04-15T00:04:59.842Z,97285.23
2023-04-15T00:09:26.878Z,97280.80
2023-04-15T00:13:50.768Z,97278.98
2023-04-15T00:18:15.827Z,97281.50
2023-04-15T00:22:40.806Z,97283.84
2023-04-15T00:27:04.989Z,97285.79
2023-04-15T00:31:28.899Z,97279.48
2023-04-15T00:35:55.797Z,97283.15
2023-04-15T00:40:19.728Z,97282.48
2023-04-15T00:44:49.646Z,97278.83
2023-04-15T00:49:14.785Z,97280.52
2023-04-15T00:53:38.726Z,97278.64
2023-04-15T00:58:03.722Z,97274.21
2023-04-15T01:02:27.709Z,97268.55
2023-04-15T01:06:51.996Z,97259.94
2023-04-15T01:11:21.642Z,97257.73
2023-04-15T01:15:45.573Z,97264.54
2023-04-15T01:20:15.441Z,97263.84
2023-04-15T01:24:39.432Z,97262.98
2023-04-15T01:29:12.700Z,97268.16
2023-04-15T01:33:38.982Z,97272.77
2023-04-15T01:38:05.968Z,97274.65
2023-04-15T01:42:35.982Z,97282.11
2023-04-15T01:47:06.281Z,97294.91
2023-04-15T01:51:35.838Z,97295.31
2023-04-15T01:56:05.779Z,97292.42
2023-04-15T02:00:33.283Z,97299.14
2023-04-15T02:04:57.231Z,97298.90
2023-04-15T02:09:21.149Z,97293.27
2023-04-15T02:13:45.090Z,97297.17
2023-04-15T02:18:00.919Z,97289.33
2023-04-15T02:22:24.952Z,97287.11
2023-04-15T02:26:48.891Z,97288.91
2023-04-15T02:31:13.891Z,97288.55
2023-04-15T02:35:41.763Z,97280.44
2023-04-15T02:40:05.815Z,97281.98
2023-04-15T02:44:28.420Z,97277.30
2023-04-15T02:48:50.984Z,97267.15
2023-04-15T02:53:17.922Z,97264.27
2023-04-15T02:57:42.917Z,97264.52
2023-04-15T03:02:07.933Z,97263.27
2023-04-15T03:06:33.023Z,97261.62
2023-04-15T03:10:59.024Z,97266.78
2023-04-15T03:15:22.790Z,97265.17
2023-04-15T03:19:48.808Z,97262.86
2023-04-15T03:24:25.327Z,97263.65
2023-04-15T03:28:50.223Z,97260.43
2023-04-15T03:33:16.117Z,97257.92
2023-04-15T03:37:50.659Z,97259.54
2023-04-15T03:42:25.421Z,97258.13
2023-04-15T03:47:30.926Z,97258.65
2023-04-15T03:52:07.101Z,97258.59
2023-04-15T03:56:42.918Z,97260.50
2023-04-15T04:01:43.243Z,97266.12
2023-04-15T04:06:09.180Z,97261.72
2023-04-15T04:10:51.164Z,97262.96
2023-04-15T04:15:33.316Z,97266.40
2023-04-15T04:20:05.440Z,97262.31
2023-04-15T04:24:31.358Z,97257.08
2023-04-15T04:28:55.303Z,97258.70
2023-04-15T04:33:23.296Z,97265.05
2023-04-15T04:37:47.274Z,97265.23
2023-04-15T04:42:15.587Z,97264.17
2023-04-15T04:46:39.568Z,97269.29
2023-04-15T04:51:04.502Z,97265.02
2023-04-15T04:55:36.831Z,97270.70
2023-04-15T05:00:11.181Z,97281.31
2023-04-15T05:04:51.418Z,97282.57
2023-04-15T05:09:16.298Z,97285.42
2023-04-15T05:13:33.948Z,97290.90
2023-04-15T05:17:58.857Z,97286.25
2023-04-15T05:22:23.870Z,97289.67
2023-04-15T05:26:47.722Z,97291.52
2023-04-15T05:31:11.694Z,97294.45
2023-04-15T05:35:35.808Z,97301.90
2023-04-15T05:40:00.760Z,97301.92
2023-04-15T05:44:24.687Z,97298.34
2023-04-15T05:48:48.945Z,97299.80
2023-04-15T05:53:13.083Z,97302.29
2023-04-15T05:57:37.818Z,97307.77
2023-04-15T06:01:56.304Z,97315.78
2023-04-15T06:06:26.213Z,97318.37
2023-04-15T06:10:50.180Z,97319.66
2023-04-15T06:15:14.142Z,97322.52
2023-04-15T06:19:44.069Z,97319.13
2023-04-15T06:24:09.908Z,97319.38
2023-04-15T06:28:33.727Z,97316.63
2023-04-15T06:32:58.766Z,97315.98
2023-04-15T06:37:22.804Z,97315.09
2023-04-15T06:41:47.355Z,97315.79
2023-04-15T06:46:12.227Z,97320.44
2023-04-15T06:50:37.210Z,97314.34
2023-04-15T06:55:02.286Z,97318.55
2023-04-15T06:59:46.244Z,97324.14
2023-04-15T07:03:52.288Z,97322.52
2023-04-15T07:08:17.265Z,97320.57
2023-04-15T07:12:41.709Z,97326.98
2023-04-15T07:17:05.953Z,97325.58
2023-04-15T07:21:32.229Z,97326.17
2023-04-15T07:25:57.056Z,97328.07
2023-04-15T07:30:20.918Z,97330.14
2023-04-15T07:34:45.800Z,97331.53
2023-04-15T07:39:02.167Z,97334.69
2023-04-15T07:43:27.352Z,97335.42
2023-04-15T07:47:51.442Z,97335.77
2023-04-15T07:52:16.425Z,97340.23
2023-04-15T07:56:41.500Z,97335.45
2023-04-15T08:01:05.646Z,97339.11
2023-04-15T08:05:29.694Z,97343.39
2023-04-15T08:09:54.592Z,97347.05
2023-04-15T08:14:20.099Z,97350.80
2023-04-15T08:18:37.499Z,97356.25
2023-04-15T08:23:01.409Z,97360.79
2023-04-15T08:27:25.657Z,97363.83
2023-04-15T08:31:49.683Z,97361.70
2023-04-15T08:36:13.582Z,97357.41
2023-04-15T08:40:38.711Z,97353.90
2023-04-15T08:45:02.577Z,97352.41
2023-04-15T08:49:27.582Z,97352.44
2023-04-15T08:53:53.596Z,97356.89
2023-04-15T08:58:19.789Z,97361.00
2023-04-15T09:02:44.026Z,97365.70
2023-04-15T09:07:09.616Z,97372.61
2023-04-15T09:11:53.345Z,97377.00
2023-04-15T09:16:17.436Z,97372.88
2023-04-15T09:20:49.664Z,97372.33
2023-04-15T09:25:16.189Z,97366.89
2023-04-15T09:30:15.476Z,97367.85
2023-04-15T09:34:59.413Z,97367.13
2023-04-15T09:39:33.353Z,97367.39
2023-04-15T09:43:57.312Z,97365.33
2023-04-15T09:48:41.147Z,97365.27
2023-04-15T09:53:11.408Z,97376.66
2023-04-15T09:57:35.456Z,97391.25
2023-04-15T10:02:01.581Z,97398.33
2023-04-15T10:06:27.604Z,97422.59
2023-04-15T10:10:51.529Z,97412.42
2023-04-15T10:15:16.944Z,97416.19
2023-04-15T10:19:57.286Z,97428.84
2023-04-15T10:24:21.188Z,97446.68
2023-04-15T10:29:05.264Z,97421.89
2023-04-15T10:33:29.248Z,97416.95
2023-04-15T10:37:53.261Z,97415.83
2023-04-15T10:42:17.651Z,97414.38
2023-04-15T10:46:51.322Z,97411.57
2023-04-15T10:51:19.569Z,97418.15
2023-04-15T10:55:55.571Z,97418.73
2023-04-15T11:00:34.031Z,97418.01
2023-04-15T11:04:58.106Z,97415.42
2023-04-15T11:09:40.078Z,97404.58
2023-04-15T11:13:56.480Z,97404.77
2023-04-15T11:18:23.325Z,97407.54
2023-04-15T11:22:47.623Z,97405.40
2023-04-15T11:27:11.519Z,97408.34
2023-04-15T11:31:35.434Z,97403.98
2023-04-15T11:35:59.437Z,97408.21
2023-04-15T11:40:23.426Z,97409.50
2023-04-15T11:44:47.335Z,97401.77
2023-04-15T11:49:11.308Z,97400.07
2023-04-15T11:53:37.777Z,97399.77
2023-04-15T11:58:01.823Z,97402.41
2023-04-15T12:02:31.740Z,97400.06
2023-04-15T12:07:07.730Z,97404.02
2023-04-15T12:11:31.621Z,97406.57
2023-04-15T12:16:04.111Z,97409.81
2023-04-15T12:20:28.417Z,97411.61
2023-04-15T12:24:52.360Z,97416.09
2023-04-15T12:29:16.219Z,97414.23
2023-04-15T12:33:40.210Z,97408.23
2023-04-15T12:37:57.102Z,97406.59
2023-04-15T12:42:20.980Z,97400.27
2023-04-15T12:46:45.084Z,97407.00
2023-04-15T12:51:10.142Z,97415.42
2023-04-15T12:55:34.485Z,97429.05
2023-04-15T12:59:58.314Z,97449.35
2023-04-15T13:04:22.472Z,97473.67
2023-04-15T13:08:57.212Z,97488.63
2023-04-15T13:13:21.642Z,97500.68
2023-04-15T13:17:48.675Z,97504.58
2023-04-15T13:22:14.647Z,97497.98
2023-04-15T13:26:59.724Z,97496.26
2023-04-15T13:31:23.721Z,97499.04
2023-04-15T13:35:47.743Z,97498.36
2023-04-15T13:40:10.254Z,97498.80
2023-04-15T13:44:35.226Z,97502.94
2023-04-15T13:48:59.199Z,97509.02
2023-04-15T13:53:33.881Z,97509.30
2023-04-15T13:58:22.718Z,97513.15
2023-04-15T14:02:46.707Z,97509.42
2023-04-15T14:07:11.913Z,97509.65
2023-04-15T14:11:37.028Z,97509.91
2023-04-15T14:16:01.120Z,97508.23
2023-04-15T14:20:25.019Z,97510.75
2023-04-15T14:24:49.039Z,97516.14
2023-04-15T14:29:12.937Z,97518.40
2023-04-15T14:33:38.908Z,97526.42
2023-04-15T14:38:03.937Z,97522.73
2023-04-15T14:42:28.698Z,97519.94
2023-04-15T14:46:52.640Z,97519.98
2023-04-15T14:51:16.485Z,97516.34
2023-04-15T14:55:41.421Z,97520.73
2023-04-15T15:00:05.332Z,97521.16
2023-04-15T15:04:49.624Z,97527.67
2023-04-15T15:09:13.722Z,97532.95
2023-04-15T15:13:37.575Z,97533.10
2023-04-15T15:18:03.682Z,97533.04
2023-04-15T15:22:27.677Z,97531.26
2023-04-15T15:26:51.864Z,97538.29
2023-04-15T15:31:15.922Z,97547.30
2023-04-15T15:35:48.752Z,97545.88
2023-04-15T15:40:14.595Z,97548.05
2023-04-15T15:44:38.559Z,97551.23
2023-04-15T15:49:12.011Z,97561.81
2023-04-15T15:53:31.479Z,97570.66
2023-04-15T15:57:55.619Z,97573.29
2023-04-15T16:03:05.154Z,97566.46
2023-04-15T16:07:24.339Z,97566.59
2023-04-15T16:11:51.327Z,97568.27
2023-04-15T16:16:15.947Z,97562.96
2023-04-15T16:20:59.844Z,97562.02
2023-04-15T16:25:43.764Z,97572.11
2023-04-15T16:30:07.944Z,97585.31
2023-04-15T16:34:33.239Z,97582.48
2023-04-15T16:38:57.307Z,97592.37
2023-04-15T16:43:21.235Z,97601.52
2023-04-15T16:47:45.172Z,97616.27
2023-04-15T16:52:09.221Z,97632.42
2023-04-15T16:56:34.120Z,97635.48
2023-04-15T17:00:58.244Z,97631.75
2023-04-15T17:05:22.367Z,97650.95
2023-04-15T17:10:06.183Z,97659.44
2023-04-15T17:14:30.417Z,97657.95
2023-04-15T17:18:54.229Z,97661.20
2023-04-15T17:23:20.448Z,97667.14
2023-04-15T17:27:36.208Z,97669.26
2023-04-15T17:32:02.982Z,97675.97
2023-04-15T17:36:26.907Z,97681.55
2023-04-15T17:40:55.172Z,97691.33
2023-04-15T17:45:49.206Z,97690.48
2023-04-15T17:50:20.171Z,97703.56
2023-04-15T17:59:42.090Z,97712.34
2023-04-15T18:04:12.369Z,97719.40
2023-04-15T18:08:37.633Z,97724.13
2023-04-15T18:13:01.759Z,97729.34
2023-04-15T18:17:18.507Z,97735.77
2023-04-15T18:21:48.805Z,97736.77
2023-04-15T18:26:15.507Z,97737.67
2023-04-15T18:30:41.342Z,97742.61
2023-04-15T18:35:06.516Z,97752.17
2023-04-15T18:39:30.506Z,97754.58
2023-04-15T18:44:14.497Z,97758.52
2023-04-15T18:48:39.514Z,97766.45
2023-04-15T18:53:03.425Z,97770.02
2023-04-15T18:57:31.336Z,97776.98
2023-04-15T19:01:57.831Z,97781.81
2023-04-15T19:06:22.846Z,97782.34
2023-04-15T19:10:47.520Z,97785.92
2023-04-15T19:15:00.051Z,97790.30
2023-04-15T19:19:15.600Z,97793.60
2023-04-15T19:23:30.154Z,97796.02
2023-04-15T19:27:55.166Z,97803.17
2023-04-15T19:32:18.906Z,97806.08
2023-04-15T19:36:34.171Z,97802.30
2023-04-15T19:40:51.879Z,97801.39
2023-04-15T19:44:53.997Z,97802.86
2023-04-15T19:49:22.900Z,97807.04
2023-04-15T19:53:38.118Z,97814.79
2023-04-15T19:58:02.177Z,97812.02
2023-04-15T20:02:26.522Z,97820.77
2023-04-15T20:06:53.240Z,97826.31
2023-04-15T20:11:18.151Z,97831.34
2023-04-15T20:15:42.295Z,97836.02
2023-04-15T20:20:26.336Z,97837.41
2023-04-15T20:24:54.302Z,97836.60
2023-04-15T20:29:18.316Z,97837.67
2023-04-15T20:33:44.418Z,97844.25
2023-04-15T20:38:08.595Z,97851.32
2023-04-15T20:42:52.933Z,97855.54
2023-04-15T20:47:16.966Z,97855.08
2023-04-15T20:52:01.824Z,97861.38
2023-04-15T20:56:25.855Z,97868.63
2023-04-15T21:00:50.265Z,97881.73
2023-04-15T21:05:14.278Z,97886.77
2023-04-15T21:09:58.240Z,97892.39
2023-04-15T21:14:22.215Z,97900.91
2023-04-15T21:18:47.308Z,97899.31
2023-04-15T21:23:13.017Z,97900.53
2023-04-15T21:27:37.007Z,97909.67
2023-04-15T21:32:02.076Z,97914.64
2023-04-15T21:36:27.064Z,97921.38
2023-04-15T21:40:51.191Z,97923.08
2023-04-15T21:45:15.150Z,97933.14
2023-04-15T21:49:40.090Z,97934.16
2023-04-15T21:54:24.224Z,97939.55
2023-04-15T21:58:48.188Z,97943.60
2023-04-15T22:03:12.251Z,97949.55
2023-04-15T22:07:40.083Z,97951.83
2023-04-15T22:12:04.229Z,97955.77
2023-04-15T22:16:20.922Z,97952.51
2023-04-15T22:20:44.917Z,97952.77
2023-04-15T22:25:09.003Z,97958.34
2023-04-15T22:29:32.938Z,97956.98
2023-04-15T22:33:59.034Z,97966.58
2023-04-15T22:38:22.979Z,97968.00
2023-04-15T22:42:46.888Z,97965.66
2023-04-15T22:47:11.856Z,97967.74
2023-04-15T22:51:35.697Z,97972.03
2023-04-15T22:55:59.672Z,97973.65
2023-04-15T23:00:23.520Z,97974.73
2023-04-15T23:04:47.792Z,97978.98
2023-04-15T23:09:12.074Z,97980.98
2023-04-15T23:13:36.090Z,97984.48
2023-04-15T23:18:00.536Z,97978.07
2023-04-15T23:22:24.507Z,97982.95
2023-04-15T23:26:49.627Z,97984.33
2023-04-15T23:31:03.190Z,97981.39
2023-04-15T23:35:27.240Z,97986.17
2023-04-15T23:39:51.393Z,97987.27
2023-04-15T23:44:25.751Z,97990.54
2023-04-15T23:48:49.754Z,97995.67
2023-04-15T23:53:14.921Z,97999.87
2023-04-15T23:57:38.949Z,97998.04
